createdAt,value
2023-05-22T00:00:47.404Z,553.00
2023-05-22T00:01:47.456Z,552.00
2023-05-22T00:02:47.489Z,556.00
2023-05-22T00:03:47.384Z,558.00
2023-05-22T00:04:47.482Z,557.00
2023-05-22T00:05:47.367Z,558.00
2023-05-22T00:06:47.376Z,557.00
2023-05-22T00:07:47.412Z,557.00
2023-05-22T00:08:47.385Z,556.00
2023-05-22T00:09:47.404Z,550.00
2023-05-22T00:10:47.426Z,551.00
2023-05-22T00:11:47.448Z,552.00
2023-05-22T00:12:47.382Z,548.00
2023-05-22T00:13:47.381Z,550.00
2023-05-22T00:14:47.448Z,546.00
2023-05-22T00:15:47.456Z,550.00
2023-05-22T00:16:47.541Z,547.00
2023-05-22T00:17:47.594Z,548.00
2023-05-22T00:18:47.617Z,547.00
2023-05-22T00:19:47.576Z,549.00
2023-05-22T00:20:47.576Z,548.00
2023-05-22T00:21:47.572Z,547.00
2023-05-22T00:22:47.583Z,548.00
2023-05-22T00:23:47.617Z,549.00
2023-05-22T00:24:47.606Z,552.00
2023-05-22T00:25:47.623Z,555.00
2023-05-22T00:26:47.626Z,549.00
2023-05-22T00:27:47.623Z,555.00
2023-05-22T00:28:47.640Z,547.00
2023-05-22T00:29:47.648Z,549.00
2023-05-22T00:30:47.616Z,551.00
2023-05-22T00:31:47.608Z,549.00
2023-05-22T00:32:47.643Z,549.00
2023-05-22T00:33:47.620Z,549.00
2023-05-22T00:34:47.784Z,548.00
2023-05-22T00:35:47.654Z,543.00
2023-05-22T00:36:47.589Z,543.00
2023-05-22T00:37:47.620Z,547.00
2023-05-22T00:38:47.601Z,545.00
2023-05-22T00:39:47.609Z,552.00
2023-05-22T00:40:47.616Z,546.00
2023-05-22T00:41:47.620Z,547.00
2023-05-22T00:42:47.630Z,546.00
2023-05-22T00:43:47.653Z,544.00
2023-05-22T00:44:47.635Z,544.00
2023-05-22T00:45:47.651Z,548.00
2023-05-22T00:46:47.790Z,548.00
2023-05-22T00:47:47.671Z,545.00
2023-05-22T00:48:47.673Z,549.00
2023-05-22T00:49:47.697Z,547.00
2023-05-22T00:50:47.679Z,548.00
2023-05-22T00:51:47.649Z,551.00
2023-05-22T00:52:47.685Z,551.00
2023-05-22T00:53:47.664Z,547.00
2023-05-22T00:54:47.681Z,543.00
2023-05-22T00:55:47.673Z,548.00
2023-05-22T00:56:47.644Z,543.00
2023-05-22T00:57:47.697Z,549.00
2023-05-22T00:58:47.691Z,549.00
2023-05-22T00:59:47.710Z,545.00
2023-05-22T01:00:47.725Z,549.00
2023-05-22T01:01:47.740Z,547.00
2023-05-22T01:02:47.829Z,545.00
2023-05-22T01:03:47.897Z,546.00
2023-05-22T01:04:47.750Z,546.00
2023-05-22T01:05:47.749Z,539.00
2023-05-22T01:06:47.806Z,546.00
2023-05-22T01:07:47.772Z,545.00
2023-05-22T01:08:47.716Z,543.00
2023-05-22T01:09:47.717Z,549.00
2023-05-22T01:10:47.673Z,547.00
2023-05-22T01:11:47.719Z,545.00
2023-05-22T01:12:47.743Z,551.00
2023-05-22T01:13:47.742Z,553.00
2023-05-22T01:14:47.752Z,552.00
2023-05-22T01:15:47.852Z,548.00
2023-05-22T01:16:47.849Z,551.00
2023-05-22T01:17:47.820Z,549.00
2023-05-22T01:18:47.791Z,541.00
2023-05-22T01:19:47.826Z,548.00
2023-05-22T01:20:48.763Z,548.00
2023-05-22T01:21:47.758Z,541.00
2023-05-22T01:22:47.773Z,552.00
2023-05-22T01:23:47.767Z,547.00
2023-05-22T01:24:47.777Z,550.00
2023-05-22T01:25:47.790Z,546.00
2023-05-22T01:26:47.788Z,544.00
2023-05-22T01:27:47.755Z,546.00
2023-05-22T01:28:47.740Z,540.00
2023-05-22T01:29:47.854Z,545.00
2023-05-22T01:30:47.824Z,551.00
2023-05-22T01:31:47.786Z,546.00
2023-05-22T01:32:47.931Z,549.00
2023-05-22T01:33:47.973Z,547.00
2023-05-22T01:34:47.804Z,546.00
2023-05-22T01:35:47.799Z,546.00
2023-05-22T01:36:47.801Z,546.00
2023-05-22T01:37:47.814Z,543.00
2023-05-22T01:38:47.820Z,541.00
2023-05-22T01:39:47.828Z,547.00
2023-05-22T01:40:47.830Z,544.00
2023-05-22T01:41:47.833Z,546.00
2023-05-22T01:42:47.850Z,541.00
2023-05-22T01:43:47.852Z,545.00
2023-05-22T01:44:47.849Z,545.00
2023-05-22T01:45:47.890Z,542.00
2023-05-22T01:46:47.868Z,548.00
2023-05-22T01:47:47.900Z,544.00
2023-05-22T01:48:47.909Z,539.00
2023-05-22T01:49:47.948Z,545.00
2023-05-22T01:50:48.127Z,550.00
2023-05-22T01:51:47.963Z,543.00
2023-05-22T01:52:47.967Z,545.00
2023-05-22T01:53:47.964Z,549.00
2023-05-22T01:54:47.982Z,544.00
2023-05-22T01:55:47.952Z,545.00
2023-05-22T01:56:48.004Z,547.00
2023-05-22T01:57:48.011Z,547.00
2023-05-22T01:58:48.023Z,542.00
2023-05-22T01:59:48.066Z,544.00
2023-05-22T02:00:48.052Z,545.00
2023-05-22T02:01:48.112Z,541.00
2023-05-22T02:02:48.209Z,542.00
2023-05-22T02:03:48.155Z,546.00
2023-05-22T02:04:48.094Z,545.00
2023-05-22T02:05:48.111Z,547.00
2023-05-22T02:06:48.129Z,543.00
2023-05-22T02:07:48.121Z,544.00
2023-05-22T02:08:48.112Z,550.00
2023-05-22T02:09:48.123Z,545.00
2023-05-22T02:10:48.202Z,547.00
2023-05-22T02:11:48.200Z,548.00
2023-05-22T02:12:48.155Z,548.00
2023-05-22T02:13:48.165Z,543.00
2023-05-22T02:14:48.241Z,548.00
2023-05-22T02:15:48.260Z,546.00
2023-05-22T02:16:48.245Z,541.00
2023-05-22T02:17:48.273Z,546.00
2023-05-22T02:18:48.247Z,541.00
2023-05-22T02:19:48.270Z,547.00
2023-05-22T02:20:48.269Z,550.00
2023-05-22T02:21:48.272Z,546.00
2023-05-22T02:22:48.275Z,545.00
2023-05-22T02:23:48.288Z,543.00
2023-05-22T02:24:48.336Z,545.00
2023-05-22T02:25:48.308Z,550.00
2023-05-22T02:26:48.348Z,542.00
2023-05-22T02:27:48.356Z,545.00
2023-05-22T02:28:48.369Z,548.00
2023-05-22T02:29:48.369Z,546.00
2023-05-22T02:30:48.401Z,547.00
2023-05-22T02:31:48.564Z,542.00
2023-05-22T02:32:48.471Z,545.00
2023-05-22T02:33:48.432Z,543.00
2023-05-22T02:34:48.455Z,545.00
2023-05-22T02:35:48.501Z,545.00
2023-05-22T02:36:48.514Z,546.00
2023-05-22T02:37:48.519Z,547.00
2023-05-22T02:38:48.673Z,544.00
2023-05-22T02:39:48.556Z,548.00
2023-05-22T02:40:48.515Z,546.00
2023-05-22T02:41:48.575Z,540.00
2023-05-22T02:42:48.572Z,546.00
2023-05-22T02:43:48.577Z,544.00
2023-05-22T02:44:48.636Z,545.00
2023-05-22T02:45:48.640Z,546.00
2023-05-22T02:46:48.722Z,547.00
2023-05-22T02:47:48.667Z,537.00
2023-05-22T02:48:48.659Z,539.00
2023-05-22T02:49:48.726Z,547.00
2023-05-22T02:50:48.724Z,548.00
2023-05-22T02:51:48.721Z,545.00
2023-05-22T02:52:48.740Z,546.00
2023-05-22T02:53:48.735Z,545.00
2023-05-22T02:54:48.747Z,546.00
2023-05-22T02:55:48.762Z,546.00
2023-05-22T02:56:48.781Z,542.00
2023-05-22T02:57:48.843Z,545.00
2023-05-22T02:58:48.780Z,547.00
2023-05-22T02:59:48.841Z,550.00
2023-05-22T03:00:48.858Z,544.00
2023-05-22T03:01:48.888Z,544.00
2023-05-22T03:02:48.910Z,540.00
2023-05-22T03:03:49.024Z,545.00
2023-05-22T03:04:48.914Z,543.00
2023-05-22T03:05:48.923Z,545.00
2023-05-22T03:06:48.926Z,546.00
2023-05-22T03:07:49.043Z,545.00
2023-05-22T03:08:48.940Z,544.00
2023-05-22T03:09:49.038Z,540.00
2023-05-22T03:10:49.035Z,543.00
2023-05-22T03:11:49.065Z,544.00
2023-05-22T03:12:49.038Z,544.00
2023-05-22T03:13:49.036Z,541.00
2023-05-22T03:14:49.091Z,548.00
2023-05-22T03:15:49.102Z,550.00
2023-05-22T03:16:49.246Z,541.00
2023-05-22T03:17:49.227Z,545.00
2023-05-22T03:18:49.205Z,546.00
2023-05-22T03:19:49.184Z,545.00
2023-05-22T03:20:49.186Z,543.00
2023-05-22T03:21:49.208Z,543.00
2023-05-22T03:22:49.245Z,539.00
2023-05-22T03:23:49.257Z,545.00
2023-05-22T03:24:49.258Z,543.00
2023-05-22T03:25:49.274Z,544.00
2023-05-22T03:26:49.309Z,548.00
2023-05-22T03:27:49.343Z,541.00
2023-05-22T03:28:49.332Z,543.00
2023-05-22T03:29:49.364Z,545.00
2023-05-22T03:30:49.359Z,542.00
2023-05-22T03:31:49.368Z,542.00
2023-05-22T03:32:49.455Z,542.00
2023-05-22T03:33:49.462Z,540.00
2023-05-22T03:34:49.423Z,544.00
2023-05-22T03:35:49.447Z,540.00
2023-05-22T03:36:49.476Z,541.00
2023-05-22T03:37:49.513Z,544.00
2023-05-22T03:38:49.519Z,541.00
2023-05-22T03:39:49.567Z,541.00
2023-05-22T03:40:49.577Z,536.00
2023-05-22T03:41:49.580Z,542.00
2023-05-22T03:42:49.634Z,546.00
2023-05-22T03:43:49.601Z,542.00
2023-05-22T03:44:49.598Z,540.00
2023-05-22T03:45:49.728Z,545.00
2023-05-22T03:46:49.724Z,540.00
2023-05-22T03:47:49.767Z,541.00
2023-05-22T03:48:49.734Z,547.00
2023-05-22T03:49:49.731Z,550.00
2023-05-22T03:50:49.776Z,537.00
2023-05-22T03:51:49.767Z,542.00
2023-05-22T03:52:49.803Z,540.00
2023-05-22T03:53:49.833Z,529.00
2023-05-22T03:54:49.828Z,538.00
2023-05-22T03:55:49.841Z,537.00
2023-05-22T03:56:49.899Z,535.00
2023-05-22T03:57:49.850Z,536.00
2023-05-22T03:58:49.864Z,533.00
2023-05-22T03:59:49.868Z,532.00
2023-05-22T04:00:49.919Z,534.00
2023-05-22T04:01:49.978Z,536.00
2023-05-22T04:02:50.107Z,524.00
2023-05-22T04:03:50.090Z,524.00
2023-05-22T04:04:50.155Z,520.00
2023-05-22T04:05:50.210Z,517.00
2023-05-22T04:06:50.231Z,508.00
2023-05-22T04:07:50.273Z,503.00
2023-05-22T04:08:50.278Z,503.00
2023-05-22T04:09:50.337Z,501.00
2023-05-22T04:10:50.351Z,501.00
2023-05-22T04:11:50.360Z,500.00
2023-05-22T04:12:50.379Z,502.00
2023-05-22T04:13:50.430Z,501.00
2023-05-22T04:14:50.470Z,500.00
2023-05-22T04:15:50.523Z,504.00
2023-05-22T04:16:50.720Z,497.00
2023-05-22T04:17:50.644Z,502.00
2023-05-22T04:18:50.671Z,503.00
2023-05-22T04:19:50.720Z,501.00
2023-05-22T04:20:50.768Z,501.00
2023-05-22T04:21:50.838Z,505.00
2023-05-22T04:22:50.833Z,501.00
2023-05-22T04:23:50.892Z,501.00
2023-05-22T04:24:50.903Z,500.00
2023-05-22T04:25:50.956Z,501.00
2023-05-22T04:26:50.963Z,503.00
2023-05-22T04:27:51.033Z,506.00
2023-05-22T04:28:51.033Z,494.00
2023-05-22T04:29:51.033Z,506.00
2023-05-22T04:30:51.083Z,507.00
2023-05-22T04:31:51.048Z,502.00
2023-05-22T04:32:51.105Z,500.00
2023-05-22T04:33:51.120Z,505.00
2023-05-22T04:34:51.228Z,505.00
2023-05-22T04:35:51.183Z,509.00
2023-05-22T04:36:51.250Z,508.00
2023-05-22T04:37:51.258Z,506.00
2023-05-22T04:38:51.258Z,512.00
2023-05-22T04:39:51.275Z,506.00
2023-05-22T04:40:51.274Z,507.00
2023-05-22T04:41:51.274Z,510.00
2023-05-22T04:42:51.288Z,510.00
2023-05-22T04:43:51.401Z,509.00
2023-05-22T04:44:51.447Z,514.00
2023-05-22T04:45:51.476Z,517.00
2023-05-22T04:46:51.570Z,515.00
2023-05-22T04:47:51.612Z,519.00
2023-05-22T04:48:51.581Z,524.00
2023-05-22T04:49:51.588Z,522.00
2023-05-22T04:50:51.645Z,521.00
2023-05-22T04:51:51.657Z,521.00
2023-05-22T04:52:51.679Z,528.00
2023-05-22T04:53:51.707Z,531.00
2023-05-22T04:54:51.732Z,533.00
2023-05-22T04:55:51.679Z,534.00
2023-05-22T04:56:51.729Z,531.00
2023-05-22T04:57:51.740Z,542.00
2023-05-22T04:58:51.753Z,541.00
2023-05-22T04:59:51.756Z,532.00
2023-05-22T05:00:51.766Z,527.00
2023-05-22T05:01:51.765Z,527.00
2023-05-22T05:02:51.985Z,525.00
2023-05-22T05:03:51.904Z,518.00
2023-05-22T05:04:51.890Z,524.00
2023-05-22T05:05:51.901Z,516.00
2023-05-22T05:06:51.960Z,509.00
2023-05-22T05:07:51.971Z,506.00
2023-05-22T05:08:52.018Z,504.00
2023-05-22T05:09:52.097Z,504.00
2023-05-22T05:10:52.142Z,502.00
2023-05-22T05:11:52.173Z,500.00
2023-05-22T05:12:52.176Z,506.00
2023-05-22T05:13:52.211Z,500.00
2023-05-22T05:14:52.215Z,501.00
2023-05-22T05:15:52.259Z,502.00
2023-05-22T05:16:52.318Z,503.00
2023-05-22T05:17:52.392Z,502.00
2023-05-22T05:18:52.362Z,505.00
2023-05-22T05:19:52.295Z,506.00
2023-05-22T05:20:52.318Z,500.00
2023-05-22T05:21:52.314Z,502.00
2023-05-22T05:22:52.311Z,502.00
2023-05-22T05:23:52.341Z,501.00
2023-05-22T05:24:52.403Z,509.00
2023-05-22T05:25:52.371Z,506.00
2023-05-22T05:26:52.417Z,505.00
2023-05-22T05:27:52.380Z,506.00
2023-05-22T05:28:52.409Z,506.00
2023-05-22T05:29:52.419Z,502.00
2023-05-22T05:30:52.532Z,498.00
2023-05-22T05:31:52.563Z,500.00
2023-05-22T05:32:52.590Z,501.00
2023-05-22T05:33:52.529Z,505.00
2023-05-22T05:34:52.582Z,501.00
2023-05-22T05:35:52.681Z,503.00
2023-05-22T05:36:52.661Z,504.00
2023-05-22T05:37:52.755Z,503.00
2023-05-22T05:38:52.802Z,500.00
2023-05-22T05:39:52.846Z,509.00
2023-05-22T05:40:52.996Z,500.00
2023-05-22T05:41:52.974Z,504.00
2023-05-22T05:42:52.968Z,500.00
2023-05-22T05:43:53.096Z,503.00
2023-05-22T05:44:53.092Z,510.00
2023-05-22T05:45:53.270Z,502.00
2023-05-22T05:46:53.247Z,503.00
2023-05-22T05:47:53.304Z,507.00
2023-05-22T05:48:53.290Z,510.00
2023-05-22T05:49:53.352Z,500.00
2023-05-22T05:50:53.339Z,501.00
2023-05-22T05:51:53.491Z,501.00
2023-05-22T05:52:53.350Z,503.00
2023-05-22T05:53:53.356Z,505.00
2023-05-22T05:54:53.343Z,518.00
2023-05-22T05:55:53.322Z,518.00
2023-05-22T05:56:53.354Z,519.00
2023-05-22T05:57:53.381Z,523.00
2023-05-22T05:58:53.448Z,518.00
2023-05-22T05:59:53.445Z,519.00
2023-05-22T06:00:53.462Z,520.00
2023-05-22T06:01:53.476Z,516.00
2023-05-22T06:02:53.598Z,523.00
2023-05-22T06:03:53.825Z,518.00
2023-05-22T06:04:53.696Z,527.00
2023-05-22T06:05:53.669Z,527.00
2023-05-22T06:06:53.794Z,527.00
2023-05-22T06:07:53.744Z,528.00
2023-05-22T06:08:53.830Z,536.00
2023-05-22T06:09:53.884Z,537.00
2023-05-22T06:10:53.986Z,537.00
2023-05-22T06:11:54.002Z,541.00
2023-05-22T06:12:54.063Z,544.00
2023-05-22T06:13:54.111Z,552.00
2023-05-22T06:14:54.183Z,556.00
2023-05-22T06:15:54.296Z,553.00
2023-05-22T06:16:54.529Z,570.00
2023-05-22T06:17:54.440Z,576.00
2023-05-22T06:18:54.518Z,575.00
2023-05-22T06:19:54.514Z,575.00
2023-05-22T06:20:54.520Z,580.00
2023-05-22T06:21:54.626Z,582.00
2023-05-22T06:22:54.702Z,588.00
2023-05-22T06:23:54.750Z,592.00
2023-05-22T06:24:54.899Z,597.00
2023-05-22T06:25:54.827Z,598.00
2023-05-22T06:26:54.887Z,601.00
2023-05-22T06:27:54.963Z,611.00
2023-05-22T06:28:54.989Z,611.00
2023-05-22T06:29:56.331Z,620.00
2023-05-22T06:30:55.135Z,624.00
2023-05-22T06:31:55.203Z,628.00
2023-05-22T06:32:55.257Z,627.00
2023-05-22T06:33:55.458Z,626.00
2023-05-22T06:34:55.369Z,633.00
2023-05-22T06:35:55.421Z,631.00
2023-05-22T06:36:55.466Z,639.00
2023-05-22T06:37:55.576Z,638.00
2023-05-22T06:38:55.620Z,641.00
2023-05-22T06:39:56.361Z,651.00
2023-05-22T06:40:55.586Z,643.00
2023-05-22T06:41:55.656Z,644.00
2023-05-22T06:42:55.783Z,645.00
2023-05-22T06:43:55.861Z,647.00
2023-05-22T06:44:56.044Z,652.00
2023-05-22T06:45:55.928Z,653.00
2023-05-22T06:46:55.961Z,649.00
2023-05-22T06:47:56.462Z,643.00
2023-05-22T06:48:56.073Z,637.00
2023-05-22T06:49:56.096Z,638.00
2023-05-22T06:50:56.138Z,639.00
2023-05-22T06:51:56.165Z,639.00
2023-05-22T06:52:56.294Z,645.00
2023-05-22T06:53:56.337Z,644.00
2023-05-22T06:54:56.385Z,649.00
2023-05-22T06:55:56.348Z,639.00
2023-05-22T06:56:56.410Z,633.00
2023-05-22T06:57:56.978Z,635.00
2023-05-22T06:58:56.570Z,630.00
2023-05-22T06:59:56.633Z,626.00
2023-05-22T07:00:56.650Z,617.00
2023-05-22T07:01:56.742Z,614.00
2023-05-22T07:02:56.862Z,615.00
2023-05-22T07:03:56.934Z,615.00
2023-05-22T07:04:56.837Z,619.00
2023-05-22T07:05:57.001Z,618.00
2023-05-22T07:06:56.934Z,615.00
2023-05-22T07:07:57.005Z,607.00
2023-05-22T07:08:57.088Z,599.00
2023-05-22T07:09:57.160Z,603.00
2023-05-22T07:10:57.272Z,601.00
2023-05-22T07:11:57.231Z,592.00
2023-05-22T07:12:57.303Z,592.00
2023-05-22T07:13:57.434Z,577.00
2023-05-22T07:14:57.437Z,572.00
2023-05-22T07:15:57.560Z,573.00
2023-05-22T07:16:57.606Z,577.00
2023-05-22T07:17:57.699Z,570.00
2023-05-22T07:18:57.775Z,570.00
2023-05-22T07:19:57.710Z,566.00
2023-05-22T07:20:57.813Z,554.00
2023-05-22T07:21:57.833Z,555.00
2023-05-22T07:22:57.944Z,552.00
2023-05-22T07:23:57.945Z,552.00
2023-05-22T07:24:58.055Z,541.00
2023-05-22T07:25:58.075Z,557.00
2023-05-22T07:26:58.155Z,552.00
2023-05-22T07:27:58.688Z,559.00
2023-05-22T07:28:58.475Z,561.00
2023-05-22T07:29:58.460Z,559.00
2023-05-22T07:30:58.391Z,556.00
2023-05-22T07:31:58.588Z,558.00
2023-05-22T07:32:59.039Z,565.00
2023-05-22T07:33:58.653Z,534.00
2023-05-22T07:34:59.874Z,507.00
2023-05-22T07:35:58.752Z,515.00
2023-05-22T07:36:58.782Z,509.00
2023-05-22T07:37:58.844Z,498.00
2023-05-22T07:38:58.959Z,500.00
2023-05-22T07:39:59.019Z,500.00
2023-05-22T07:40:59.061Z,504.00
2023-05-22T07:41:59.563Z,501.00
2023-05-22T07:42:59.260Z,504.00
2023-05-22T07:43:59.184Z,505.00
2023-05-22T07:44:59.298Z,504.00
2023-05-22T07:45:59.284Z,508.00
2023-05-22T07:46:59.325Z,505.00
2023-05-22T07:48:00.577Z,502.00
2023-05-22T07:48:59.539Z,504.00
2023-05-22T07:49:59.545Z,509.00
2023-05-22T07:50:59.526Z,500.00
2023-05-22T07:51:59.561Z,509.00
2023-05-22T07:52:59.629Z,511.00
2023-05-22T07:54:59.741Z,505.00
2023-05-22T07:55:59.676Z,512.00
2023-05-22T07:56:59.768Z,516.00
2023-05-22T07:57:59.761Z,517.00
2023-05-22T07:58:59.929Z,511.00
2023-05-22T07:59:59.923Z,509.00
2023-05-22T08:00:59.878Z,506.00
2023-05-22T08:01:59.914Z,504.00
2023-05-22T08:03:00.204Z,509.00
2023-05-22T08:04:00.142Z,500.00
2023-05-22T08:05:00.571Z,512.00
2023-05-22T08:06:00.481Z,515.00
2023-05-22T08:07:00.110Z,514.00
2023-05-22T08:08:00.153Z,503.00
2023-05-22T08:09:00.171Z,500.00
2023-05-22T08:10:00.228Z,511.00
2023-05-22T08:11:04.090Z,507.00
2023-05-22T08:12:00.298Z,507.00
2023-05-22T08:13:00.293Z,492.00
2023-05-22T08:14:00.201Z,469.00
2023-05-22T08:15:00.224Z,434.00
2023-05-22T08:16:01.371Z,437.00
2023-05-22T08:17:00.231Z,483.00
2023-05-22T08:18:00.260Z,509.00
2023-05-22T08:19:00.288Z,508.00
2023-05-22T08:20:00.357Z,513.00
2023-05-22T08:21:00.230Z,520.00
2023-05-22T08:22:00.164Z,522.00
2023-05-22T08:23:00.128Z,521.00
2023-05-22T08:24:00.153Z,527.00
2023-05-22T08:25:00.478Z,519.00
2023-05-22T08:26:00.162Z,504.00
2023-05-22T08:27:00.119Z,428.00
2023-05-22T08:28:00.112Z,474.00
2023-05-22T08:29:00.149Z,418.00
2023-05-22T08:30:00.544Z,400.00
2023-05-22T08:31:00.118Z,435.00
2023-05-22T08:32:00.201Z,500.00
2023-05-22T08:33:00.226Z,509.00
2023-05-22T08:34:00.185Z,541.00
2023-05-22T08:35:00.519Z,537.00
2023-05-22T08:36:00.047Z,520.00
2023-05-22T08:37:00.077Z,454.00
2023-05-22T08:38:00.119Z,481.00
2023-05-22T08:39:00.136Z,519.00
2023-05-22T08:40:00.238Z,541.00
2023-05-22T08:41:00.211Z,494.00
2023-05-22T08:42:00.194Z,520.00
2023-05-22T08:43:00.219Z,500.00
2023-05-22T08:44:00.212Z,509.00
2023-05-22T08:45:00.301Z,540.00
2023-05-22T08:46:00.482Z,564.00
2023-05-22T08:47:00.502Z,555.00
2023-05-22T08:48:00.717Z,565.00
2023-05-22T08:49:00.458Z,583.00
2023-05-22T08:50:00.506Z,609.00
2023-05-22T08:51:00.544Z,623.00
2023-05-22T08:52:00.554Z,636.00
2023-05-22T08:53:00.644Z,639.00
2023-05-22T08:54:00.648Z,629.00
2023-05-22T08:55:00.692Z,631.00
2023-05-22T08:56:00.828Z,624.00
2023-05-22T08:57:00.768Z,601.00
2023-05-22T08:58:00.805Z,599.00
2023-05-22T08:59:00.984Z,621.00
2023-05-22T09:00:00.916Z,580.00
2023-05-22T09:01:00.893Z,597.00
2023-05-22T09:02:00.913Z,628.00
2023-05-22T09:03:01.011Z,596.00
2023-05-22T09:04:01.213Z,591.00
2023-05-22T09:05:00.977Z,624.00
2023-05-22T09:06:01.000Z,653.00
2023-05-22T09:07:01.497Z,663.00
2023-05-22T09:08:15.867Z,701.00
2023-05-22T09:09:02.052Z,702.00
2023-05-22T09:10:01.040Z,711.00
2023-05-22T09:11:01.052Z,729.00
2023-05-22T09:12:01.555Z,774.00
2023-05-22T09:13:01.118Z,894.00
2023-05-22T09:14:01.031Z,911.00
2023-05-22T09:15:01.043Z,967.00
2023-05-22T09:16:01.044Z,993.00
2023-05-22T09:17:01.076Z,982.00
2023-05-22T09:18:01.062Z,1021.00
2023-05-22T09:19:00.988Z,1049.00
2023-05-22T09:20:00.985Z,1107.00
2023-05-22T09:21:00.988Z,1032.00
2023-05-22T09:22:00.942Z,1045.00
2023-05-22T09:23:01.012Z,971.00
2023-05-22T09:24:01.119Z,840.00
2023-05-22T09:25:01.181Z,895.00
2023-05-22T09:26:00.967Z,1010.00
2023-05-22T09:27:01.007Z,1024.00
2023-05-22T09:28:00.885Z,1081.00
2023-05-22T09:29:01.050Z,1120.00
2023-05-22T09:30:01.079Z,1185.00
2023-05-22T09:31:03.830Z,1242.00
2023-05-22T09:32:00.877Z,1284.00
2023-05-22T09:33:00.967Z,1248.00
2023-05-22T09:34:00.880Z,1268.00
2023-05-22T09:35:01.091Z,1291.00
2023-05-22T09:36:00.909Z,944.00
2023-05-22T09:37:00.872Z,880.00
2023-05-22T09:38:00.929Z,878.00
2023-05-22T09:39:00.828Z,899.00
2023-05-22T09:40:01.032Z,951.00
2023-05-22T09:41:01.051Z,976.00
2023-05-22T09:42:00.854Z,1001.00
2023-05-22T09:43:00.824Z,1041.00
2023-05-22T09:44:02.151Z,1035.00
2023-05-22T09:45:00.818Z,1080.00
2023-05-22T09:46:01.008Z,1127.00
2023-05-22T09:47:00.850Z,1154.00
2023-05-22T09:48:00.894Z,1148.00
2023-05-22T09:49:00.847Z,1178.00
2023-05-22T09:50:00.803Z,1192.00
2023-05-22T09:51:00.801Z,1046.00
2023-05-22T09:52:00.899Z,1153.00
2023-05-22T09:53:02.373Z,1161.00
2023-05-22T09:54:01.015Z,1203.00
2023-05-22T09:55:00.729Z,1284.00
2023-05-22T09:56:00.702Z,1384.00
2023-05-22T09:57:00.723Z,1386.00
2023-05-22T09:58:00.707Z,1379.00
2023-05-22T09:59:00.689Z,1440.00
2023-05-22T10:00:00.753Z,1369.00
2023-05-22T10:01:00.742Z,1410.00
2023-05-22T10:02:00.822Z,1412.00
2023-05-22T10:03:00.863Z,1446.00
2023-05-22T10:04:00.901Z,1448.00
2023-05-22T10:05:01.002Z,1501.00
2023-05-22T10:06:01.012Z,1441.00
2023-05-22T10:07:01.066Z,1445.00
2023-05-22T10:08:01.089Z,1540.00
2023-05-22T10:09:01.191Z,1556.00
2023-05-22T10:10:01.259Z,1581.00
2023-05-22T10:11:01.261Z,1523.00
2023-05-22T10:12:01.349Z,1495.00
2023-05-22T10:13:01.411Z,1601.00
2023-05-22T10:14:01.465Z,1624.00
2023-05-22T10:15:01.514Z,1583.00
2023-05-22T10:16:03.556Z,1650.00
2023-05-22T10:17:01.672Z,1667.00
2023-05-22T10:18:01.776Z,1643.00
2023-05-22T10:19:01.830Z,1690.00
2023-05-22T10:20:02.149Z,1899.00
2023-05-22T10:21:01.888Z,2134.00
2023-05-22T10:22:01.970Z,2366.00
2023-05-22T10:23:02.655Z,2558.00
2023-05-22T10:24:02.019Z,2616.00
2023-05-22T10:25:02.532Z,2523.00
2023-05-22T10:26:02.122Z,2395.00
2023-05-22T10:27:02.199Z,2258.00
2023-05-22T10:28:02.251Z,2264.00
2023-05-22T10:29:02.359Z,2300.00
2023-05-22T10:30:02.555Z,2290.00
2023-05-22T10:31:02.396Z,2290.00
2023-05-22T10:32:02.482Z,2304.00
2023-05-22T10:33:02.635Z,2315.00
2023-05-22T10:34:02.619Z,2300.00
2023-05-22T10:35:02.606Z,2236.00
2023-05-22T10:36:02.626Z,2141.00
2023-05-22T10:37:13.138Z,1892.00
2023-05-22T10:38:04.053Z,1879.00
2023-05-22T10:39:02.751Z,1785.00
2023-05-22T10:40:02.644Z,1737.00
2023-05-22T10:41:02.662Z,1585.00
2023-05-22T10:42:02.657Z,1611.00
2023-05-22T10:43:03.081Z,1620.00
2023-05-22T10:44:02.641Z,1617.00
2023-05-22T10:45:02.632Z,1569.00
2023-05-22T10:46:02.657Z,1581.00
2023-05-22T10:47:02.687Z,1520.00
2023-05-22T10:48:03.138Z,1560.00
2023-05-22T10:49:02.809Z,1591.00
2023-05-22T10:50:02.865Z,1578.00
2023-05-22T10:51:02.897Z,1525.00
2023-05-22T10:52:02.905Z,1552.00
2023-05-22T10:53:02.967Z,1532.00
2023-05-22T10:54:03.016Z,1451.00
2023-05-22T10:55:03.092Z,1409.00
2023-05-22T10:56:03.166Z,1423.00
2023-05-22T10:57:03.091Z,1402.00
2023-05-22T10:58:05.120Z,1430.00
2023-05-22T10:59:03.184Z,1394.00
2023-05-22T11:00:03.194Z,1411.00
2023-05-22T11:01:03.285Z,1411.00
2023-05-22T11:02:03.347Z,1382.00
2023-05-22T11:03:10.069Z,1361.00
2023-05-22T11:04:04.574Z,1362.00
2023-05-22T11:05:03.520Z,1357.00
2023-05-22T11:06:03.583Z,1348.00
2023-05-22T11:07:03.324Z,1316.00
2023-05-22T11:08:03.272Z,1305.00
2023-05-22T11:09:03.305Z,1299.00
2023-05-22T11:10:03.300Z,1206.00
2023-05-22T11:11:04.864Z,1238.00
2023-05-22T11:12:03.265Z,1259.00
2023-05-22T11:13:03.274Z,1353.00
2023-05-22T11:14:03.248Z,1282.00
2023-05-22T11:15:03.287Z,1244.00
2023-05-22T11:16:03.234Z,1259.00
2023-05-22T11:17:03.364Z,1238.00
2023-05-22T11:18:03.258Z,1293.00
2023-05-22T11:20:03.317Z,1329.00
2023-05-22T11:21:03.225Z,1355.00
2023-05-22T11:22:03.257Z,1270.00
2023-05-22T11:23:03.217Z,1241.00
2023-05-22T11:24:03.594Z,1232.00
2023-05-22T11:25:03.294Z,1149.00
2023-05-22T11:26:03.282Z,1108.00
2023-05-22T11:27:03.415Z,984.00
2023-05-22T11:28:03.308Z,911.00
2023-05-22T11:29:03.390Z,760.00
2023-05-22T11:30:03.372Z,672.00
2023-05-22T11:31:03.512Z,624.00
2023-05-22T11:32:03.460Z,585.00
2023-05-22T11:33:03.521Z,553.00
2023-05-22T11:34:03.504Z,542.00
2023-05-22T11:35:03.637Z,513.00
2023-05-22T11:36:03.630Z,505.00
2023-05-22T11:37:03.625Z,500.00
2023-05-22T11:38:03.682Z,500.00
2023-05-22T11:39:03.761Z,505.00
2023-05-22T11:40:03.769Z,500.00
2023-05-22T11:41:03.806Z,503.00
2023-05-22T11:42:03.890Z,516.00
2023-05-22T11:43:03.936Z,508.00
2023-05-22T11:44:04.001Z,505.00
2023-05-22T11:45:04.054Z,502.00
2023-05-22T11:46:04.190Z,500.00
2023-05-22T11:47:04.154Z,500.00
2023-05-22T11:48:04.354Z,503.00
2023-05-22T11:49:04.334Z,501.00
2023-05-22T11:50:04.401Z,503.00
2023-05-22T11:51:04.405Z,503.00
2023-05-22T11:52:04.468Z,511.00
2023-05-22T11:53:04.571Z,490.00
2023-05-22T11:54:04.632Z,510.00
2023-05-22T11:55:04.667Z,500.00
2023-05-22T11:56:04.690Z,512.00
2023-05-22T11:57:04.732Z,508.00
2023-05-22T11:58:04.817Z,516.00
2023-05-22T11:59:04.938Z,536.00
2023-05-22T12:00:04.933Z,535.00
2023-05-22T12:01:04.984Z,400.00
2023-05-22T12:02:05.037Z,437.00
2023-05-22T12:03:05.206Z,471.00
2023-05-22T12:04:05.259Z,479.00
2023-05-22T12:05:05.181Z,522.00
2023-05-22T12:06:05.385Z,523.00
2023-05-22T12:07:05.277Z,542.00
2023-05-22T12:08:05.311Z,553.00
2023-05-22T12:09:05.329Z,496.00
2023-05-22T12:10:05.417Z,505.00
2023-05-22T12:11:05.409Z,523.00
2023-05-22T12:12:05.451Z,531.00
2023-05-22T12:13:05.453Z,488.00
2023-05-22T12:14:05.479Z,500.00
2023-05-22T12:15:05.614Z,505.00
2023-05-22T12:16:05.592Z,526.00
2023-05-22T12:17:05.576Z,474.00
2023-05-22T12:18:05.638Z,464.00
2023-05-22T12:19:05.626Z,467.00
2023-05-22T12:20:05.762Z,500.00
2023-05-22T12:21:05.708Z,509.00
2023-05-22T12:22:05.800Z,509.00
2023-05-22T12:23:05.797Z,529.00
2023-05-22T12:24:05.831Z,508.00
2023-05-22T12:25:05.909Z,528.00
2023-05-22T12:26:05.942Z,523.00
2023-05-22T12:27:05.957Z,535.00